Weather History for Jefferson, NC

Change the Weather History Date:

Thursday, March 13, 2014

  Actual Average Record
Temperature  
Mean Temperature 26 °F -  
Max Temperature 32 °F 54 °F 78 °F (1990)
Min Temperature 19 °F 32 °F 19 °F (1968)
Degree Days  
Heating Degree Days 40    
Moisture  
Dew Point 1 °F    
Average Humidity 38    
Maximum Humidity 78    
Minimum Humidity 18    
Precipitation  
Precipitation 0.00 in - - ()
Sea Level Pressure  
Sea Level Pressure 29.87 in    
Wind  
Wind Speed 22 mph (NW)    
Max Wind Speed 43 mph    
Max Gust Speed 60 mph    
Visibility 9 miles    
Events Snow    
Averages and records for this station are not official NWS values.
T = Trace of Precipitation, MM = Missing Value Source: NWS Daily Summary

Daily Weather History Graph

Daily Weather History Graph

Search for Another Location

Airport:

Trip Planner

Search our weather history database for the weather conditions in past years. The results will help you decide how hot, cold, wet, or windy it might be!

Date:

Astronomy

Mar. 13, 2014 Rise Set
Actual Time 7:39 AM EDT 7:31 PM EDT
Civil Twilight 7:13 AM EDT 7:57 PM EDT
Nautical Twilight 6:43 AM EDT 8:26 PM EDT
Astronomical Twilight 6:13 AM EDT 8:57 PM EDT
Moon 4:59 PM EDT (3/13) 5:41 AM EDT (3/13)
Length of Visible Light 12h 43m
Length of Day
11h 51m
Waxing Gibbous, 91% of the Moon is Illuminated
Mar 13
Waxing Gibbous
Mar 16
Full
Mar 23
Last Quarter
Mar 30
New
Apr 7
First Quarter

Hourly Weather History & Observations

Time (EDT) Temp. Windchill Dew Point Humidity Pressure Visibility Wind Dir Wind Speed Gust Speed Precip Events Conditions
12:15 AM 27.0 °F 12.5 °F 18.3 °F 70% 29.63 in 3.0 mi NW 23.0 mph 46.0 mph N/A Snow Light Snow
12:35 AM 26.6 °F 11.1 °F 17.4 °F 68% 29.64 in 4.0 mi NW 26.5 mph 40.3 mph N/A Snow Light Snow
1:00 AM 25.9 °F 13.3 °F 17.6 °F 71% 29.66 in 5.0 mi NW 16.1 mph 34.5 mph N/A Snow Light Snow
1:15 AM 24.8 °F 12.4 °F 18.9 °F 78% 29.66 in 2.0 mi NW 15.0 mph 26.5 mph N/A Snow Light Snow
1:35 AM 24.4 °F 10.2 °F 14.9 °F 67% 29.67 in 5.0 mi NW 19.6 mph 39.1 mph N/A Snow Light Snow
1:55 AM 23.9 °F 7.5 °F 14.4 °F 67% 29.66 in 4.0 mi NW 26.5 mph 41.4 mph N/A Snow Light Snow
2:15 AM 23.4 °F 6.5 °F 15.3 °F 71% 29.66 in 4.0 mi NW 27.6 mph 38.0 mph N/A Snow Light Snow
2:35 AM 23.4 °F 8.1 °F 16.3 °F 75% 29.66 in 1.5 mi NW 21.9 mph 34.5 mph N/A Snow Light Snow
3:00 AM 23.7 °F 6.9 °F 14.2 °F 67% 29.63 in 5.0 mi NW 27.6 mph 54.1 mph N/A Snow Light Snow
3:15 AM 23.5 °F 5.1 °F 12.9 °F 64% 29.62 in 2.5 mi WNW 34.5 mph 59.8 mph N/A Snow Light Snow
3:35 AM 22.8 °F 5.4 °F 13.3 °F 67% 29.63 in 2.5 mi WNW 28.8 mph 57.5 mph N/A Snow Light Snow
3:55 AM 22.8 °F 3.9 °F 12.9 °F 66% 29.62 in 4.0 mi NW 35.7 mph 48.3 mph N/A Snow Light Snow
4:15 AM 22.6 °F 3.9 °F 9.5 °F 57% 29.62 in 10.0 mi NW 34.5 mph 51.8 mph N/A   Scattered Clouds
4:35 AM 22.3 °F 1.8 °F 7.9 °F 54% 29.63 in 10.0 mi WNW 42.6 mph 58.7 mph N/A   Clear
4:55 AM 21.7 °F 4.3 °F 8.2 °F 56% 29.65 in 10.0 mi WNW 27.6 mph 52.9 mph N/A   Mostly Cloudy
5:15 AM 21.6 °F 3.2 °F 7.9 °F 56% 29.65 in 7.0 mi WNW 31.1 mph 43.7 mph N/A   Mostly Cloudy
5:35 AM 21.2 °F 5.6 °F 8.4 °F 58% 29.66 in 10.0 mi WNW 20.7 mph 48.3 mph N/A   Overcast
5:55 AM 21.2 °F 3.9 °F 10.0 °F 62% 29.66 in 5.0 mi WNW 26.5 mph 48.3 mph N/A Snow Light Snow
6:15 AM 21.2 °F 4.2 °F 9.7 °F 61% 29.69 in 7.0 mi NW 25.3 mph 55.2 mph N/A Snow Light Snow
6:35 AM 20.8 °F 3.4 °F 12.6 °F 70% 29.69 in 2.5 mi WNW 26.5 mph 46.0 mph N/A Snow Light Snow
6:55 AM 20.7 °F 1.2 °F 10.2 °F 64% 29.70 in 5.0 mi WNW 34.5 mph 49.5 mph N/A Snow Light Snow
7:15 AM 20.8 °F 2.2 °F 7.3 °F 56% 29.71 in 10.0 mi WNW 31.1 mph 56.4 mph N/A   Overcast
7:35 AM 20.7 °F 2.5 °F 5.5 °F 52% 29.73 in 10.0 mi NW 28.8 mph 51.8 mph N/A   Scattered Clouds
7:55 AM 20.3 °F 2.6 °F 7.3 °F 57% 29.75 in 10.0 mi NW 26.5 mph 44.9 mph N/A   Scattered Clouds
8:15 AM 19.9 °F 4.8 °F 7.5 °F 59% 29.77 in 10.0 mi NW 18.4 mph 43.7 mph N/A   Mostly Cloudy
8:35 AM 20.5 °F 2.9 °F 6.6 °F 55% 29.77 in 10.0 mi NW 26.5 mph 44.9 mph N/A   Mostly Cloudy
8:55 AM 21.0 °F 5.4 °F 7.3 °F 56% 29.79 in 10.0 mi WNW 20.7 mph 43.7 mph N/A   Scattered Clouds
9:15 AM 21.2 °F 6.8 °F 5.7 °F 51% 29.82 in 10.0 mi WNW 17.3 mph 31.1 mph N/A   Scattered Clouds
9:35 AM 21.6 °F 5.7 °F -0.4 °F 38% 29.83 in 10.0 mi NW 21.9 mph 38.0 mph N/A   Clear
9:55 AM 21.9 °F 8.2 °F -5.1 °F 30% 29.84 in 10.0 mi NW 16.1 mph 35.7 mph N/A   Clear
10:15 AM 22.1 °F 8.0 °F -9.6 °F 24% 29.85 in 10.0 mi NW 17.3 mph 49.5 mph N/A   Clear
10:35 AM 22.6 °F 7.9 °F -13.2 °F 20% 29.86 in 10.0 mi WNW 19.6 mph 34.5 mph N/A   Clear
10:55 AM 23.5 °F 9.4 °F -12.1 °F 20% 29.87 in 10.0 mi NW 18.4 mph 27.6 mph N/A   Clear
11:15 AM 23.5 °F 8.3 °F -13.9 °F 19% 29.89 in 10.0 mi NNW 21.9 mph 39.1 mph N/A   Clear
11:35 AM 24.4 °F 9.9 °F -10.7 °F 21% 29.89 in 10.0 mi NNW 20.7 mph 33.4 mph N/A   Clear
11:55 AM 24.6 °F 8.8 °F -11.4 °F 20% 29.89 in 10.0 mi NW 25.3 mph 39.1 mph N/A   Clear
12:15 PM 25.3 °F 10.3 °F -9.9 °F 21% 29.90 in 10.0 mi NW 23.0 mph 40.3 mph N/A   Clear
12:35 PM 25.5 °F 9.4 °F -9.0 °F 22% 29.90 in 10.0 mi NW 27.6 mph 44.9 mph N/A   Clear
12:55 PM 25.9 °F 10.7 °F -8.5 °F 22% 29.91 in 10.0 mi NW 24.2 mph 42.6 mph N/A   Clear
1:15 PM 26.2 °F 10.9 °F -7.4 °F 23% 29.92 in 10.0 mi NW 25.3 mph 42.6 mph N/A   Clear
1:35 PM 27.5 °F 12.6 °F -4.7 °F 25% 29.93 in 10.0 mi NW 25.3 mph 33.4 mph N/A   Clear
1:55 PM 28.0 °F 14.3 °F -4.2 °F 25% 29.94 in 10.0 mi NW 21.9 mph 31.1 mph N/A   Clear
2:15 PM 28.4 °F 14.1 °F -4.7 °F 24% 29.94 in 10.0 mi NW 24.2 mph 39.1 mph N/A   Clear
2:35 PM 28.6 °F 15.3 °F -4.7 °F 24% 29.95 in 10.0 mi NW 20.7 mph 35.7 mph N/A   Clear
2:55 PM 29.5 °F 15.5 °F -6.0 °F 21% 29.95 in 10.0 mi NW 24.2 mph 32.2 mph N/A   Clear
3:20 PM 30.4 °F 18.4 °F -6.3 °F 20% 29.95 in 10.0 mi NW 18.4 mph 31.1 mph N/A   Clear
3:35 PM 30.7 °F 18.5 °F -5.4 °F 21% 29.95 in 10.0 mi NW 19.6 mph 29.9 mph N/A   Clear
3:55 PM 31.6 °F 22.1 °F -6.3 °F 19% 29.96 in 10.0 mi NW 12.7 mph 29.9 mph N/A   Clear
4:15 PM 31.6 °F 23.1 °F -6.0 °F 20% 29.97 in 10.0 mi WNW 10.4 mph 26.5 mph N/A   Clear
4:35 PM 32.0 °F 20.5 °F -7.4 °F 18% 29.96 in 10.0 mi NNW 18.4 mph 26.5 mph N/A   Clear
4:55 PM 32.4 °F 23.5 °F -7.1 °F 18% 29.98 in 10.0 mi NW 11.5 mph 28.8 mph N/A   Clear
5:15 PM 32.0 °F 22.5 °F -7.2 °F 18% 29.98 in 10.0 mi NW 12.7 mph 27.6 mph N/A   Clear
5:35 PM 32.2 °F 23.8 °F -7.1 °F 18% 29.99 in 10.0 mi NW 10.4 mph 25.3 mph N/A   Clear
5:55 PM 32.2 °F 22.7 °F -6.9 °F 18% 30.00 in 10.0 mi NW 12.7 mph 28.8 mph N/A   Clear
6:15 PM 32.4 °F 24.0 °F -7.4 °F 18% 30.01 in 10.0 mi NW 10.4 mph 24.2 mph N/A   Clear
6:35 PM 32.0 °F 24.8 °F -6.9 °F 19% 30.02 in 10.0 mi NNW 8.1 mph 19.6 mph N/A   Clear
6:55 PM 32.0 °F 22.5 °F -7.1 °F 18% 30.03 in 10.0 mi WNW 12.7 mph 18.4 mph N/A   Clear
7:15 PM 31.8 °F 21.8 °F -8.0 °F 18% 30.04 in 10.0 mi WNW 13.8 mph 25.3 mph N/A   Clear
7:35 PM 30.9 °F 21.7 °F -6.9 °F 19% 30.05 in 10.0 mi NW 11.5 mph 24.2 mph N/A   Clear
7:55 PM 30.7 °F 22.6 °F -7.4 °F 19% 30.06 in 10.0 mi WNW 9.2 mph 16.1 mph N/A   Clear
8:15 PM 30.7 °F 26.0 °F -5.4 °F 21% 30.06 in 10.0 mi NW 4.6 mph 23.0 mph N/A   Clear
8:35 PM 30.0 °F - -4.9 °F 22% 30.07 in 10.0 mi Calm Calm - N/A   Clear
8:55 PM 30.2 °F 25.4 °F -5.4 °F 21% 30.08 in 10.0 mi WNW 4.6 mph 18.4 mph N/A   Clear
9:15 PM 30.2 °F 24.3 °F -5.1 °F 22% 30.09 in 10.0 mi West 5.8 mph - N/A   Clear
9:35 PM 30.2 °F 21.9 °F -4.4 °F 22% 30.09 in 10.0 mi NW 9.2 mph 20.7 mph N/A   Clear
9:55 PM 30.2 °F 20.8 °F -4.0 °F 23% 30.10 in 10.0 mi West 11.5 mph 23.0 mph N/A   Clear
10:15 PM 30.0 °F 20.0 °F -3.5 °F 24% 30.11 in 10.0 mi West 12.7 mph 19.6 mph N/A   Clear
10:35 PM 29.8 °F 20.3 °F -2.6 °F 25% 30.11 in 10.0 mi WNW 11.5 mph 26.5 mph N/A   Clear
10:55 PM 29.8 °F 19.8 °F -1.5 °F 26% 30.11 in 10.0 mi West 12.7 mph 24.2 mph N/A   Clear
11:15 PM 29.3 °F 20.8 °F -0.9 °F 27% 30.11 in 10.0 mi West 9.2 mph 20.7 mph N/A   Clear
11:35 PM 29.5 °F 19.9 °F -0.6 °F 28% 30.12 in 10.0 mi West 11.5 mph - N/A   Clear
11:55 PM 29.7 °F 20.1 °F -1.1 °F 27% 30.11 in 10.0 mi West 11.5 mph 20.7 mph N/A   Clear